createdAt,value
2024-02-13T00:00:27.820Z,68.94
2024-02-13T00:02:54.884Z,69.01
2024-02-13T00:05:21.863Z,69.06
2024-02-13T00:07:49.919Z,69.33
2024-02-13T00:10:17.086Z,69.36
2024-02-13T00:12:44.232Z,69.68
2024-02-13T00:15:15.458Z,69.65
2024-02-13T00:17:42.916Z,69.77
2024-02-13T00:20:11.324Z,69.77
2024-02-13T00:22:38.284Z,69.94
2024-02-13T00:25:06.835Z,70.25
2024-02-13T00:27:34.697Z,70.30
2024-02-13T00:30:04.760Z,70.53
2024-02-13T00:32:33.469Z,70.92
2024-02-13T00:35:00.913Z,71.25
2024-02-13T00:37:27.874Z,70.78
2024-02-13T00:39:55.537Z,71.07
2024-02-13T00:42:22.590Z,70.73
2024-02-13T00:44:50.629Z,70.80
2024-02-13T00:47:19.161Z,70.64
2024-02-13T00:49:46.527Z,70.55
2024-02-13T00:52:13.925Z,71.01
2024-02-13T00:54:41.007Z,70.94
2024-02-13T00:57:08.720Z,70.88
2024-02-13T00:59:35.594Z,71.03
2024-02-13T01:02:02.509Z,70.99
2024-02-13T01:04:31.081Z,70.79
2024-02-13T01:06:58.152Z,70.86
2024-02-13T01:09:30.973Z,70.39
2024-02-13T01:11:57.891Z,70.97
2024-02-13T01:14:24.690Z,70.84
2024-02-13T01:16:51.506Z,70.68
2024-02-13T01:19:21.494Z,70.91
2024-02-13T01:21:49.056Z,70.81
2024-02-13T01:24:16.798Z,70.65
2024-02-13T01:26:45.067Z,70.73
2024-02-13T01:29:13.073Z,70.88
2024-02-13T01:31:40.086Z,70.91
2024-02-13T01:34:11.210Z,71.05
2024-02-13T01:36:38.914Z,70.98
2024-02-13T01:39:06.176Z,71.24
2024-02-13T01:41:33.183Z,70.94
2024-02-13T01:44:00.926Z,70.71
2024-02-13T01:46:29.807Z,70.92
2024-02-13T01:49:01.069Z,70.66
2024-02-13T01:51:31.042Z,70.47
2024-02-13T01:54:04.430Z,70.99
2024-02-13T01:56:34.662Z,70.80
2024-02-13T01:59:04.612Z,70.44
2024-02-13T02:01:32.654Z,70.55
2024-02-13T02:04:01.339Z,70.55
2024-02-13T02:08:56.336Z,70.53
2024-02-13T02:11:26.199Z,70.10
2024-02-13T02:13:53.820Z,70.50
2024-02-13T02:16:20.687Z,70.12
2024-02-13T02:18:47.688Z,70.27
2024-02-13T02:21:15.654Z,70.35
2024-02-13T02:23:42.591Z,70.18
2024-02-13T02:26:09.546Z,70.72
2024-02-13T02:28:36.395Z,70.55
2024-02-13T02:31:03.271Z,70.14
2024-02-13T02:33:30.169Z,70.55
2024-02-13T02:35:57.177Z,70.58
2024-02-13T02:38:24.307Z,70.94
2024-02-13T02:40:51.229Z,71.16
2024-02-13T02:43:18.272Z,70.94
2024-02-13T02:45:46.285Z,70.87
2024-02-13T02:48:15.603Z,70.97
2024-02-13T02:50:43.283Z,70.68
2024-02-13T02:53:10.355Z,70.44
2024-02-13T02:55:37.254Z,70.67
2024-02-13T02:58:04.179Z,70.97
2024-02-13T03:00:30.993Z,71.07
2024-02-13T03:02:58.123Z,70.71
2024-02-13T03:05:27.226Z,70.49
2024-02-13T03:07:54.342Z,70.69
2024-02-13T03:10:21.563Z,70.55
2024-02-13T03:12:48.678Z,70.39
2024-02-13T03:15:15.542Z,70.72
2024-02-13T03:17:45.190Z,70.56
2024-02-13T03:20:13.967Z,70.50
2024-02-13T03:22:40.973Z,70.34
2024-02-13T03:25:08.555Z,70.42
2024-02-13T03:27:35.415Z,70.18
2024-02-13T03:30:03.257Z,70.27
2024-02-13T03:32:30.511Z,70.43
2024-02-13T03:34:57.590Z,70.47
2024-02-13T03:37:24.468Z,70.05
2024-02-13T03:39:51.358Z,70.10
2024-02-13T03:42:18.205Z,70.05
2024-02-13T03:44:46.777Z,69.95
2024-02-13T03:47:13.955Z,69.86
2024-02-13T03:49:41.691Z,70.01
2024-02-13T03:52:10.724Z,70.02
2024-02-13T03:54:37.718Z,69.64
2024-02-13T03:57:05.891Z,69.88
2024-02-13T03:59:32.952Z,69.83
2024-02-13T04:02:00.521Z,69.68
2024-02-13T04:04:27.483Z,69.81
2024-02-13T04:06:54.435Z,69.40
2024-02-13T04:09:21.265Z,69.39
2024-02-13T04:11:48.157Z,69.34
2024-02-13T04:14:15.181Z,68.82
2024-02-13T04:16:42.599Z,68.92
2024-02-13T04:19:09.780Z,68.71
2024-02-13T04:21:38.897Z,68.88
2024-02-13T04:24:09.196Z,69.01
2024-02-13T04:26:43.310Z,68.75
2024-02-13T04:29:10.604Z,68.69
2024-02-13T04:31:40.326Z,68.91
2024-02-13T04:34:07.600Z,68.68
2024-02-13T04:36:38.288Z,68.74
2024-02-13T04:39:07.237Z,68.78
2024-02-13T04:41:34.338Z,68.69
2024-02-13T04:44:01.365Z,68.59
2024-02-13T04:46:28.181Z,68.67
2024-02-13T04:48:58.536Z,68.69
2024-02-13T04:51:25.489Z,68.79
2024-02-13T04:53:52.848Z,68.74
2024-02-13T04:56:19.865Z,68.56
2024-02-13T04:58:46.807Z,68.89
2024-02-13T05:01:15.411Z,68.79
2024-02-13T05:03:48.428Z,68.88
2024-02-13T05:06:34.366Z,68.90
2024-02-13T05:09:01.563Z,68.70
2024-02-13T05:11:28.703Z,68.63
2024-02-13T05:13:57.600Z,68.69
2024-02-13T05:16:27.853Z,68.80
2024-02-13T05:18:55.212Z,68.75
2024-02-13T05:21:22.448Z,68.93
2024-02-13T05:23:50.228Z,68.69
2024-02-13T05:26:21.284Z,68.83
2024-02-13T05:28:50.149Z,68.86
2024-02-13T05:31:19.044Z,69.06
2024-02-13T05:33:46.156Z,68.72
2024-02-13T05:36:13.364Z,68.77
2024-02-13T05:38:53.497Z,68.83
2024-02-13T05:41:20.420Z,68.80
2024-02-13T05:43:47.266Z,68.82
2024-02-13T05:46:14.580Z,68.74
2024-02-13T05:48:44.516Z,69.13
2024-02-13T05:51:12.879Z,68.96
2024-02-13T05:53:43.468Z,68.97
2024-02-13T05:56:13.239Z,69.28
2024-02-13T05:58:40.671Z,69.03
2024-02-13T06:01:09.002Z,69.04
2024-02-13T06:03:35.976Z,68.96
2024-02-13T06:06:03.700Z,68.75
2024-02-13T06:08:30.810Z,68.94
2024-02-13T06:11:00.340Z,69.11
2024-02-13T06:13:27.835Z,69.10
2024-02-13T06:15:57.883Z,69.00
2024-02-13T06:18:25.274Z,69.06
2024-02-13T06:20:52.350Z,69.28
2024-02-13T06:23:19.350Z,69.08
2024-02-13T06:25:46.247Z,69.21
2024-02-13T06:28:13.150Z,69.37
2024-02-13T06:30:40.757Z,69.27
2024-02-13T06:33:08.918Z,69.17
2024-02-13T06:35:35.936Z,69.30
2024-02-13T06:38:02.748Z,69.51
2024-02-13T06:40:30.612Z,69.41
2024-02-13T06:42:57.999Z,69.52
2024-02-13T06:45:26.970Z,69.58
2024-02-13T06:47:54.295Z,69.40
2024-02-13T06:50:21.464Z,69.78
2024-02-13T06:52:53.112Z,69.46
2024-02-13T06:55:22.987Z,69.75
2024-02-13T06:57:49.795Z,69.96
2024-02-13T07:00:17.554Z,70.09
2024-02-13T07:02:44.939Z,70.02
2024-02-13T07:05:12.585Z,69.95
2024-02-13T07:07:46.739Z,70.26
2024-02-13T07:10:17.157Z,70.47
2024-02-13T07:12:45.027Z,70.79
2024-02-13T07:15:12.399Z,70.57
2024-02-13T07:17:49.031Z,71.06
2024-02-13T07:20:24.790Z,70.90
2024-02-13T07:22:52.115Z,70.89
2024-02-13T07:25:19.196Z,71.35
2024-02-13T07:27:48.483Z,71.53
2024-02-13T07:30:16.584Z,71.58
2024-02-13T07:32:45.877Z,72.25
2024-02-13T07:35:13.082Z,72.41
2024-02-13T07:37:39.916Z,72.51
2024-02-13T07:40:08.154Z,72.69
2024-02-13T07:42:35.007Z,72.38
2024-02-13T07:45:02.188Z,72.44
2024-02-13T07:47:30.004Z,72.31
2024-02-13T07:49:59.259Z,72.05
2024-02-13T07:52:26.264Z,71.25
2024-02-13T07:54:53.150Z,71.32
2024-02-13T07:57:19.997Z,70.69
2024-02-13T07:59:48.092Z,70.78
2024-02-13T08:02:15.185Z,70.35
2024-02-13T08:04:42.353Z,70.09
2024-02-13T08:07:10.121Z,69.72
2024-02-13T08:09:37.684Z,69.76
2024-02-13T08:12:08.030Z,69.63
2024-02-13T08:14:36.264Z,69.33
2024-02-13T08:17:09.277Z,69.24
2024-02-13T08:19:41.256Z,68.93
2024-02-13T08:22:08.638Z,68.78
2024-02-13T08:24:36.612Z,68.71
2024-02-13T08:27:03.683Z,68.80
2024-02-13T08:29:31.804Z,69.10
2024-02-13T08:31:59.177Z,69.14
2024-02-13T08:34:26.622Z,69.24
2024-02-13T08:36:55.327Z,69.61
2024-02-13T08:39:22.322Z,69.57
2024-02-13T08:41:49.388Z,69.63
2024-02-13T08:44:17.593Z,69.90
2024-02-13T08:46:44.647Z,69.81
2024-02-13T08:49:12.847Z,69.89
2024-02-13T08:51:40.074Z,69.69
2024-02-13T08:54:07.291Z,70.03
2024-02-13T08:56:34.860Z,70.23
2024-02-13T08:59:02.275Z,69.89
2024-02-13T09:01:30.985Z,69.64
2024-02-13T09:03:57.933Z,69.72
2024-02-13T09:06:24.861Z,70.12
2024-02-13T09:08:51.800Z,69.91
2024-02-13T09:11:18.744Z,70.02
2024-02-13T09:13:46.272Z,69.63
2024-02-13T09:16:14.914Z,69.77
2024-02-13T09:18:42.690Z,69.84
2024-02-13T09:21:10.768Z,69.86
2024-02-13T09:23:37.949Z,69.94
2024-02-13T09:26:05.225Z,70.21
2024-02-13T09:28:32.491Z,69.92
2024-02-13T09:30:59.613Z,69.84
2024-02-13T09:33:27.327Z,70.28
2024-02-13T09:35:55.158Z,69.95
2024-02-13T09:38:22.879Z,70.13
2024-02-13T09:40:50.171Z,69.88
2024-02-13T09:43:17.319Z,69.93
2024-02-13T09:45:45.517Z,70.04
2024-02-13T09:48:22.859Z,70.08
2024-02-13T09:50:51.706Z,69.74
2024-02-13T09:53:27.117Z,70.03
2024-02-13T09:55:58.922Z,70.00
2024-02-13T09:58:27.434Z,70.06
2024-02-13T10:00:58.651Z,69.85
2024-02-13T10:03:28.163Z,69.57
2024-02-13T10:05:55.495Z,69.68
2024-02-13T10:08:28.250Z,69.67
2024-02-13T10:11:09.874Z,69.97
2024-02-13T10:13:46.565Z,69.78
2024-02-13T10:16:27.026Z,69.70
2024-02-13T10:18:58.955Z,69.77
2024-02-13T10:21:27.767Z,69.69
2024-02-13T10:24:16.152Z,69.68
2024-02-13T10:26:43.843Z,69.52
2024-02-13T10:29:11.169Z,69.37
2024-02-13T10:31:40.889Z,69.74
2024-02-13T10:34:10.761Z,69.48
2024-02-13T10:36:39.755Z,69.42
2024-02-13T10:39:10.304Z,69.26
2024-02-13T10:41:42.981Z,69.28
2024-02-13T10:44:15.090Z,69.27
2024-02-13T10:46:43.500Z,69.14
2024-02-13T10:49:23.985Z,69.06
2024-02-13T10:51:51.507Z,69.30
2024-02-13T10:54:19.419Z,69.34
2024-02-13T10:56:47.019Z,69.14
2024-02-13T10:59:14.740Z,69.17
2024-02-13T11:01:44.609Z,69.07
2024-02-13T11:04:13.897Z,68.80
2024-02-13T11:06:40.890Z,68.73
2024-02-13T11:09:13.434Z,68.64
2024-02-13T11:11:44.634Z,69.06
2024-02-13T11:14:20.091Z,68.62
2024-02-13T11:17:01.977Z,68.99
2024-02-13T11:19:47.951Z,69.18
2024-02-13T11:22:23.438Z,68.93
2024-02-13T11:24:53.112Z,68.73
2024-02-13T11:27:30.863Z,69.13
2024-02-13T11:30:04.241Z,69.16
2024-02-13T11:32:37.343Z,68.97
2024-02-13T11:35:10.341Z,68.99
2024-02-13T11:37:38.207Z,68.86
2024-02-13T11:40:06.776Z,68.50
2024-02-13T11:42:35.273Z,68.43
2024-02-13T11:45:03.067Z,68.35
2024-02-13T11:47:30.512Z,68.56
2024-02-13T11:49:57.746Z,68.63
2024-02-13T11:52:25.176Z,68.72
2024-02-13T11:54:52.775Z,68.66
2024-02-13T11:57:21.982Z,68.66
2024-02-13T12:00:01.124Z,68.94
2024-02-13T12:02:29.878Z,68.67
2024-02-13T12:04:57.046Z,68.29
2024-02-13T12:07:24.124Z,68.45
2024-02-13T12:09:53.417Z,68.33
2024-02-13T12:12:21.336Z,68.10
2024-02-13T12:14:51.066Z,67.97
2024-02-13T12:17:18.208Z,67.65
2024-02-13T12:19:45.573Z,67.66
2024-02-13T12:22:17.155Z,67.66
2024-02-13T12:24:48.389Z,67.76
2024-02-13T12:27:17.850Z,67.79
2024-02-13T12:29:45.495Z,67.80
2024-02-13T12:32:18.449Z,67.79
2024-02-13T12:34:51.292Z,67.81
2024-02-13T12:37:22.125Z,67.97
2024-02-13T12:39:50.818Z,67.72
2024-02-13T12:42:20.941Z,67.42
2024-02-13T12:44:49.223Z,67.44
2024-02-13T12:47:18.504Z,67.49
2024-02-13T12:49:46.006Z,67.77
2024-02-13T12:52:17.900Z,68.18
2024-02-13T12:54:47.317Z,67.97
2024-02-13T12:57:15.482Z,67.73
2024-02-13T12:59:44.561Z,67.89
2024-02-13T13:02:11.672Z,67.76
2024-02-13T13:04:38.479Z,67.73
2024-02-13T13:07:07.169Z,67.61
2024-02-13T13:09:35.714Z,67.68
2024-02-13T13:12:02.724Z,67.85
2024-02-13T13:14:29.969Z,67.42
2024-02-13T13:16:57.499Z,67.64
2024-02-13T13:19:28.038Z,67.53
2024-02-13T13:21:55.879Z,67.72
2024-02-13T13:24:23.967Z,67.73
2024-02-13T13:26:54.248Z,67.78
2024-02-13T13:29:21.369Z,67.96
2024-02-13T13:31:50.127Z,68.04
2024-02-13T13:34:21.321Z,67.57
2024-02-13T13:36:49.250Z,67.35
2024-02-13T13:39:16.317Z,67.28
2024-02-13T13:41:43.202Z,67.13
2024-02-13T13:44:11.615Z,67.25
2024-02-13T13:46:38.447Z,67.50
2024-02-13T13:49:05.593Z,67.52
2024-02-13T13:51:34.781Z,67.25
2024-02-13T13:54:02.415Z,67.33
2024-02-13T13:56:29.548Z,67.93
2024-02-13T13:58:56.424Z,67.89
2024-02-13T14:01:23.558Z,68.11
2024-02-13T14:03:50.684Z,68.01
2024-02-13T14:06:17.767Z,67.76
2024-02-13T14:08:44.883Z,68.15
2024-02-13T14:11:12.548Z,67.51
2024-02-13T14:13:39.420Z,67.30
2024-02-13T14:16:06.885Z,67.04
2024-02-13T14:18:33.842Z,67.06
2024-02-13T14:21:01.461Z,66.82
2024-02-13T14:23:30.343Z,67.05
2024-02-13T14:28:24.020Z,67.30
2024-02-13T14:30:52.002Z,67.51
2024-02-13T14:33:19.054Z,67.74
2024-02-13T14:35:48.395Z,67.70
2024-02-13T14:38:16.467Z,67.63
2024-02-13T14:40:44.376Z,67.53
2024-02-13T14:43:14.417Z,67.61
2024-02-13T14:45:42.621Z,67.85
2024-02-13T14:48:14.192Z,67.69
2024-02-13T14:50:41.782Z,67.71
2024-02-13T14:53:10.016Z,67.80
2024-02-13T14:55:38.736Z,67.67
2024-02-13T14:58:14.856Z,67.70
2024-02-13T15:00:53.941Z,67.96
2024-02-13T15:03:24.471Z,67.80
2024-02-13T15:05:51.534Z,67.94
2024-02-13T15:08:18.632Z,67.91
2024-02-13T15:10:47.161Z,68.04
2024-02-13T15:13:16.247Z,68.13
2024-02-13T15:15:49.041Z,67.62
2024-02-13T15:18:16.241Z,67.61
2024-02-13T15:20:44.127Z,67.85
2024-02-13T15:23:13.379Z,67.55
2024-02-13T15:25:40.224Z,67.39
2024-02-13T15:28:07.167Z,67.23
2024-02-13T15:30:37.467Z,67.08
2024-02-13T15:33:06.001Z,67.18
2024-02-13T15:35:42.231Z,67.07
2024-02-13T15:38:28.001Z,67.16
2024-02-13T15:41:13.417Z,67.28
2024-02-13T15:43:58.570Z,67.57
2024-02-13T15:46:43.713Z,67.42
2024-02-13T15:49:12.688Z,67.33
2024-02-13T15:51:41.139Z,67.57
2024-02-13T15:54:09.864Z,67.69
2024-02-13T15:56:37.474Z,67.34
2024-02-13T15:59:05.080Z,67.56
2024-02-13T16:01:32.178Z,67.55
2024-02-13T16:03:59.877Z,67.48
2024-02-13T16:06:27.000Z,67.49
2024-02-13T16:08:54.228Z,67.35
2024-02-13T16:11:22.280Z,67.43
2024-02-13T16:13:50.375Z,67.32
2024-02-13T16:16:17.215Z,67.26
2024-02-13T16:18:48.616Z,67.46
2024-02-13T16:21:15.852Z,67.37
2024-02-13T16:23:42.757Z,67.47
2024-02-13T16:26:11.532Z,67.46
2024-02-13T16:28:38.898Z,67.35
2024-02-13T16:31:07.636Z,67.46
2024-02-13T16:33:35.309Z,67.25
2024-02-13T16:36:02.358Z,67.19
2024-02-13T16:38:29.356Z,67.44
2024-02-13T16:40:56.215Z,67.28
2024-02-13T16:43:24.299Z,67.24
2024-02-13T16:45:51.145Z,67.51
2024-02-13T16:48:19.623Z,67.12
2024-02-13T16:50:46.631Z,67.57
2024-02-13T16:53:13.519Z,67.34
2024-02-13T16:55:41.531Z,67.56
2024-02-13T16:58:09.934Z,67.43
2024-02-13T17:00:36.958Z,67.38
2024-02-13T17:03:06.915Z,67.48
2024-02-13T17:05:35.993Z,67.19
2024-02-13T17:08:02.910Z,67.11
2024-02-13T17:10:29.799Z,67.20
2024-02-13T17:12:56.756Z,67.39
2024-02-13T17:15:23.596Z,67.40
2024-02-13T17:17:50.880Z,67.28
2024-02-13T17:20:18.358Z,67.64
2024-02-13T17:22:45.304Z,67.56
2024-02-13T17:25:13.228Z,67.42
2024-02-13T17:27:41.885Z,67.54
2024-02-13T17:30:13.206Z,67.71
2024-02-13T17:32:41.254Z,67.42
2024-02-13T17:35:08.729Z,67.55
2024-02-13T17:37:35.660Z,67.37
2024-02-13T17:40:03.849Z,67.75
2024-02-13T17:42:30.757Z,67.66
2024-02-13T17:44:57.658Z,67.59
2024-02-13T17:47:25.638Z,67.64
2024-02-13T17:49:54.323Z,67.65
2024-02-13T17:52:21.384Z,67.58
2024-02-13T17:54:48.531Z,67.60
2024-02-13T17:57:15.363Z,67.97
2024-02-13T17:59:42.237Z,67.79
2024-02-13T18:02:10.177Z,67.62
2024-02-13T18:04:37.050Z,67.75
2024-02-13T18:07:05.068Z,67.56
2024-02-13T18:09:32.271Z,67.54
2024-02-13T18:12:03.269Z,67.46
2024-02-13T18:14:30.197Z,67.47
2024-02-13T18:16:57.297Z,67.60
2024-02-13T18:19:24.670Z,67.38
2024-02-13T18:21:51.747Z,67.26
2024-02-13T18:24:18.847Z,67.31
2024-02-13T18:26:46.857Z,67.51
2024-02-13T18:29:13.748Z,67.61
2024-02-13T18:31:40.588Z,67.72
2024-02-13T18:34:07.492Z,67.70
2024-02-13T18:36:34.407Z,67.45
2024-02-13T18:39:01.333Z,67.56
2024-02-13T18:41:28.970Z,67.67
2024-02-13T18:43:55.799Z,67.60
2024-02-13T18:46:22.929Z,67.64
2024-02-13T18:48:50.882Z,67.45
2024-02-13T18:51:18.082Z,67.55
2024-02-13T18:53:46.208Z,67.65
2024-02-13T18:56:13.092Z,67.66
2024-02-13T18:58:40.014Z,67.42
2024-02-13T19:01:07.407Z,67.61
2024-02-13T19:03:34.290Z,67.80
2024-02-13T19:06:04.598Z,67.41
2024-02-13T19:08:32.949Z,67.38
2024-02-13T19:11:00.025Z,68.03
2024-02-13T19:13:27.175Z,67.56
2024-02-13T19:15:54.316Z,67.60
2024-02-13T19:18:21.622Z,67.69
2024-02-13T19:20:48.996Z,67.52
2024-02-13T19:23:21.444Z,67.71
2024-02-13T19:25:49.504Z,67.85
2024-02-13T19:28:17.987Z,67.77
2024-02-13T19:30:47.807Z,67.52
2024-02-13T19:33:14.954Z,67.68
2024-02-13T19:35:43.411Z,67.77
2024-02-13T19:38:14.296Z,67.98
2024-02-13T19:40:42.852Z,67.69
2024-02-13T19:43:09.758Z,67.65
2024-02-13T19:45:37.590Z,67.57
2024-02-13T19:48:04.807Z,67.63
2024-02-13T19:50:32.778Z,67.56
2024-02-13T19:53:00.552Z,67.51
2024-02-13T19:55:28.219Z,67.39
2024-02-13T19:57:55.252Z,67.32
2024-02-13T20:00:23.930Z,67.71
2024-02-13T20:02:50.770Z,67.39
2024-02-13T20:05:18.336Z,67.39
2024-02-13T20:10:37.106Z,67.54
2024-02-13T20:13:05.160Z,67.50
2024-02-13T20:15:32.004Z,67.57
2024-02-13T20:17:59.009Z,67.24
2024-02-13T20:20:26.025Z,67.49
2024-02-13T20:22:53.484Z,67.18
2024-02-13T20:25:20.379Z,67.33
2024-02-13T20:27:47.254Z,67.20
2024-02-13T20:30:16.007Z,67.25
2024-02-13T20:32:46.064Z,67.42
2024-02-13T20:35:13.715Z,67.38
2024-02-13T20:37:41.582Z,67.50
2024-02-13T20:40:11.294Z,67.13
2024-02-13T20:42:46.448Z,66.92
2024-02-13T20:45:18.128Z,67.42
2024-02-13T20:47:49.883Z,67.12
2024-02-13T20:50:16.828Z,67.00
2024-02-13T20:52:43.735Z,67.32
2024-02-13T20:55:12.514Z,66.86
2024-02-13T20:57:41.262Z,67.00
2024-02-13T21:00:13.786Z,67.03
2024-02-13T21:02:42.152Z,67.06
2024-02-13T21:05:10.874Z,66.85
2024-02-13T21:07:37.753Z,67.12
2024-02-13T21:10:07.113Z,67.11
2024-02-13T21:12:34.068Z,66.95
2024-02-13T21:15:01.063Z,67.01
2024-02-13T21:17:28.945Z,66.86
2024-02-13T21:19:57.663Z,67.19
2024-02-13T21:22:43.045Z,67.25
2024-02-13T21:25:10.042Z,67.25
2024-02-13T21:27:36.927Z,67.32
2024-02-13T21:30:05.332Z,67.39
2024-02-13T21:32:32.355Z,67.18
2024-02-13T21:34:59.534Z,67.46
2024-02-13T21:37:26.499Z,67.39
2024-02-13T21:39:53.330Z,67.34
2024-02-13T21:42:20.196Z,67.36
2024-02-13T21:44:47.026Z,67.10
2024-02-13T21:47:13.883Z,67.16
2024-02-13T21:49:40.726Z,67.08
2024-02-13T21:52:07.548Z,67.07
2024-02-13T21:54:35.898Z,67.36
2024-02-13T21:57:05.058Z,67.31
2024-02-13T21:59:31.996Z,67.24
2024-02-13T22:01:58.842Z,67.26
2024-02-13T22:04:25.749Z,67.36
2024-02-13T22:06:52.665Z,67.29
2024-02-13T22:09:19.495Z,67.09
2024-02-13T22:11:46.361Z,67.26
2024-02-13T22:14:13.184Z,67.26
2024-02-13T22:16:41.149Z,67.27
2024-02-13T22:19:08.150Z,66.92
2024-02-13T22:21:35.706Z,67.05
2024-02-13T22:24:04.732Z,67.22
2024-02-13T22:26:40.156Z,67.16
2024-02-13T22:29:09.089Z,67.38
2024-02-13T22:31:36.113Z,67.16
2024-02-13T22:34:03.801Z,67.46
2024-02-13T22:36:31.076Z,67.32
2024-02-13T22:38:57.939Z,67.42
2024-02-13T22:41:25.290Z,67.10
2024-02-13T22:43:54.920Z,67.58
2024-02-13T22:46:25.856Z,67.30
2024-02-13T22:48:53.290Z,67.32
2024-02-13T22:51:20.302Z,67.43
2024-02-13T22:53:49.766Z,67.47
2024-02-13T22:56:16.646Z,67.45
2024-02-13T22:58:43.803Z,67.36
2024-02-13T23:01:11.038Z,67.29
2024-02-13T23:03:39.565Z,67.38
2024-02-13T23:06:06.979Z,67.42
2024-02-13T23:08:35.933Z,67.53
2024-02-13T23:11:02.862Z,67.50
2024-02-13T23:13:36.018Z,67.92
2024-02-13T23:16:08.361Z,67.81
2024-02-13T23:18:36.176Z,67.68
2024-02-13T23:21:04.131Z,67.79
2024-02-13T23:23:33.632Z,67.68
2024-02-13T23:26:00.540Z,68.02
2024-02-13T23:28:30.142Z,67.82
2024-02-13T23:30:59.227Z,67.80
2024-02-13T23:33:26.242Z,67.75
2024-02-13T23:35:53.453Z,68.07
2024-02-13T23:38:20.309Z,67.75
2024-02-13T23:40:47.100Z,68.03
2024-02-13T23:43:14.641Z,67.78
2024-02-13T23:45:41.534Z,68.00
2024-02-13T23:48:09.569Z,67.73
2024-02-13T23:50:36.986Z,68.09
2024-02-13T23:53:04.799Z,68.09
2024-02-13T23:55:32.666Z,68.22
2024-02-13T23:58:00.033Z,67.96
